Time;durP1;ratioP1;P1;durP2;ratioP2;P2;SDS_P1;SDS_P2;PMS_P1;PMS_P2;Temp;Humidity;BMP_temperature;BMP_pressure;BME280_temperature;BME280_humidity;BME280_pressure;Samples;Min_cycle;Max_cycle;Signal;HPM_P1;HPM_P2
2021/06/17 00:00:03;;;;;;;17.75;15.48;;;17.90;99.90;;;;;;5039244;28;20064;-66
2021/06/17 00:02:29;;;;;;;17.17;14.48;;;17.90;99.90;;;;;;5039006;28;20490;-66
2021/06/17 00:04:55;;;;;;;27.05;19.67;;;17.90;99.90;;;;;;5039206;28;20056;-67
2021/06/17 00:07:21;;;;;;;21.33;16.38;;;17.90;99.90;;;;;;5039246;28;20033;-66
2021/06/17 00:09:47;;;;;;;19.25;16.95;;;17.90;99.90;;;;;;5038721;28;20029;-66
2021/06/17 00:12:13;;;;;;;25.42;17.65;;;17.90;99.90;;;;;;5038841;28;20063;-66
2021/06/17 00:14:40;;;;;;;19.55;16.13;;;17.90;99.90;;;;;;5038290;28;20033;-66
2021/06/17 00:17:07;;;;;;;20.73;16.10;;;17.90;99.90;;;;;;5038782;28;20025;-66
2021/06/17 00:19:33;;;;;;;22.38;17.48;;;17.90;99.90;;;;;;5038674;28;20040;-66
2021/06/17 00:21:59;;;;;;;19.95;17.73;;;17.90;99.90;;;;;;5039034;28;20026;-66
2021/06/17 00:24:25;;;;;;;18.52;15.38;;;18.00;99.90;;;;;;5038547;28;20060;-66
2021/06/17 00:26:52;;;;;;;26.58;19.33;;;18.00;99.90;;;;;;5038673;28;20071;-66
2021/06/17 00:29:19;;;;;;;27.35;20.17;;;18.00;99.90;;;;;;5038396;28;20095;-66
2021/06/17 00:31:46;;;;;;;27.55;21.73;;;18.00;99.90;;;;;;5038841;28;20029;-66
2021/06/17 00:34:12;;;;;;;23.83;18.70;;;17.80;99.90;;;;;;5038584;28;20037;-66
2021/06/17 00:36:39;;;;;;;32.58;20.55;;;17.90;99.90;;;;;;5038901;28;20028;-66
2021/06/17 00:39:07;;;;;;;33.47;21.50;;;17.90;99.90;;;;;;5037941;28;20025;-66
2021/06/17 00:41:35;;;;;;;24.20;20.13;;;17.80;99.90;;;;;;5038467;28;20021;-66
2021/06/17 00:44:01;;;;;;;32.20;21.45;;;17.80;99.90;;;;;;5038156;28;20027;-67
2021/06/17 00:46:27;;;;;;;30.02;19.98;;;17.80;99.90;;;;;;5038668;28;20018;-66
2021/06/17 00:48:53;;;;;;;21.80;17.25;;;17.70;99.90;;;;;;5038161;28;20022;-66
2021/06/17 00:51:19;;;;;;;27.00;21.67;;;17.60;99.90;;;;;;5038270;28;20105;-66
2021/06/17 00:53:45;;;;;;;23.95;18.48;;;17.60;99.90;;;;;;5037813;28;20026;-66
2021/06/17 00:56:11;;;;;;;23.98;20.80;;;17.60;99.90;;;;;;5036813;28;20025;-66
2021/06/17 00:58:37;;;;;;;27.20;20.42;;;17.70;99.90;;;;;;5037895;28;20029;-66
2021/06/17 01:01:03;;;;;;;27.30;21.95;;;17.70;99.90;;;;;;5038012;28;20397;-66
2021/06/17 01:03:29;;;;;;;30.40;22.60;;;17.60;99.90;;;;;;5037924;28;20032;-66
2021/06/17 01:05:55;;;;;;;31.67;23.75;;;17.60;99.90;;;;;;5038044;28;20025;-66
2021/06/17 01:08:45;;;;;;;29.75;22.48;;;17.60;99.90;;;;;;5037729;28;20042;-66
2021/06/17 01:11:27;;;;;;;30.27;23.77;;;17.60;99.90;;;;;;5037752;28;20052;-66
2021/06/17 01:13:58;;;;;;;22.48;18.40;;;17.60;99.90;;;;;;5037500;28;20567;-66
2021/06/17 01:16:42;;;;;;;30.60;24.58;;;17.60;99.90;;;;;;5037666;28;20121;-66
2021/06/17 01:19:31;;;;;;;28.75;24.27;;;17.70;99.90;;;;;;5037747;28;20363;-66
2021/06/17 01:22:06;;;;;;;27.65;21.83;;;17.70;99.90;;;;;;5037830;28;20073;-66
2021/06/17 01:25:08;;;;;;;25.05;20.05;;;17.80;99.90;;;;;;5037434;28;20033;-66
2021/06/17 01:28:05;;;;;;;24.90;20.75;;;17.70;99.90;;;;;;5036304;28;20026;-66
2021/06/17 01:30:35;;;;;;;30.65;25.73;;;17.80;99.90;;;;;;5037092;28;20112;-66
2021/06/17 01:33:03;;;;;;;35.08;24.02;;;17.80;99.90;;;;;;5037540;28;20021;-66
2021/06/17 01:35:33;;;;;;;33.17;26.77;;;17.70;99.90;;;;;;5037920;28;20075;-66
2021/06/17 01:38:02;;;;;;;36.15;26.17;;;17.70;99.90;;;;;;5037431;28;20406;-66
2021/06/17 01:40:30;;;;;;;32.95;22.35;;;17.70;99.90;;;;;;5037173;28;20034;-66
2021/06/17 01:42:58;;;;;;;34.28;27.90;;;17.60;99.90;;;;;;5037443;28;20024;-66
2021/06/17 01:45:25;;;;;;;35.80;28.63;;;17.60;99.90;;;;;;5037235;28;20029;-66
2021/06/17 01:47:52;;;;;;;34.53;27.58;;;17.50;99.90;;;;;;5037349;28;20483;-66
2021/06/17 01:50:22;;;;;;;37.10;29.77;;;17.50;99.90;;;;;;5036989;28;20025;-66
2021/06/17 01:52:52;;;;;;;29.92;24.27;;;17.50;99.90;;;;;;5037192;28;20081;-66
2021/06/17 01:55:18;;;;;;;37.40;28.63;;;17.50;99.90;;;;;;5036665;28;20032;-66
2021/06/17 01:57:45;;;;;;;35.83;28.42;;;17.50;99.90;;;;;;5036961;28;20026;-66
2021/06/17 02:00:13;;;;;;;33.55;25.33;;;17.50;99.90;;;;;;5036724;28;20041;-66
2021/06/17 02:02:39;;;;;;;37.53;28.50;;;17.50;99.90;;;;;;5037003;28;20030;-67
2021/06/17 02:05:08;;;;;;;38.97;30.92;;;17.50;99.90;;;;;;5036770;28;20108;-66
2021/06/17 02:07:39;;;;;;;37.65;26.33;;;17.40;99.90;;;;;;5036774;28;20029;-66
2021/06/17 02:10:06;;;;;;;44.25;32.30;;;17.40;99.90;;;;;;5016979;28;20080;-66
2021/06/17 02:12:32;;;;;;;47.03;32.08;;;17.30;99.90;;;;;;5016835;28;20437;-66
2021/06/17 02:14:59;;;;;;;45.58;32.78;;;17.30;99.90;;;;;;5017040;28;20065;-66
2021/06/17 02:17:26;;;;;;;46.90;33.63;;;17.30;99.90;;;;;;5017072;28;20430;-66
2021/06/17 02:19:52;;;;;;;44.78;33.80;;;17.30;99.90;;;;;;5017221;28;20033;-66
2021/06/17 02:22:19;;;;;;;45.78;33.08;;;17.30;99.90;;;;;;5016980;28;20022;-66
2021/06/17 02:24:55;;;;;;;45.08;33.70;;;17.30;99.90;;;;;;5016741;28;20532;-66
2021/06/17 02:27:29;;;;;;;40.97;30.48;;;17.20;99.90;;;;;;5016590;28;20033;-66
2021/06/17 02:30:01;;;;;;;43.03;31.73;;;17.20;99.90;;;;;;5027374;28;20409;-66
2021/06/17 02:32:29;;;;;;;41.03;30.63;;;17.30;99.90;;;;;;5036670;28;20406;-66
2021/06/17 02:34:57;;;;;;;54.75;35.05;;;17.30;99.90;;;;;;5036941;28;20073;-66
2021/06/17 02:37:25;;;;;;;43.90;30.90;;;17.20;99.90;;;;;;5036353;28;20512;-66
2021/06/17 02:39:52;;;;;;;41.00;29.70;;;17.20;99.90;;;;;;5042630;28;20029;-66
2021/06/17 02:42:20;;;;;;;45.03;31.38;;;17.30;99.90;;;;;;5042823;28;20020;-66
2021/06/17 02:44:49;;;;;;;48.58;33.55;;;17.30;99.90;;;;;;5043060;28;20033;-66
2021/06/17 02:47:17;;;;;;;48.17;33.50;;;17.30;99.90;;;;;;5042892;28;20029;-66
2021/06/17 02:49:43;;;;;;;63.83;33.75;;;17.20;99.90;;;;;;5043062;28;20022;-66
2021/06/17 02:52:10;;;;;;;44.13;33.28;;;17.10;99.90;;;;;;5042766;28;20116;-66
2021/06/17 02:54:36;;;;;;;49.00;34.85;;;17.20;99.90;;;;;;5042800;28;20026;-67
2021/06/17 02:57:21;;;;;;;55.75;37.13;;;17.30;99.90;;;;;;5042772;28;20507;-66
2021/06/17 03:00:16;;;;;;;44.72;30.42;;;17.20;99.90;;;;;;5042828;28;20030;-66
2021/06/17 03:03:00;;;;;;;52.78;36.22;;;17.20;99.90;;;;;;5042809;28;20045;-66
2021/06/17 03:05:32;;;;;;;53.33;36.97;;;17.10;99.90;;;;;;5023369;28;20026;-66
2021/06/17 03:08:21;;;;;;;49.75;35.45;;;17.20;99.90;;;;;;5023164;28;20026;-66
2021/06/17 03:10:54;;;;;;;55.15;37.03;;;17.10;99.90;;;;;;5023078;28;20543;-66
2021/06/17 03:13:25;;;;;;;56.55;39.13;;;17.10;99.90;;;;;;5029838;28;20025;-66
2021/06/17 03:15:52;;;;;;;51.80;35.20;;;17.00;99.90;;;;;;5042796;28;20031;-66
2021/06/17 03:18:19;;;;;;;47.85;34.45;;;17.00;99.90;;;;;;5042707;28;20104;-66
2021/06/17 03:20:46;;;;;;;58.72;36.78;;;17.00;99.90;;;;;;5042579;28;20081;-66
2021/06/17 03:23:16;;;;;;;50.20;31.98;;;17.00;99.90;;;;;;5042598;28;20021;-66
2021/06/17 03:25:47;;;;;;;50.15;33.92;;;17.00;99.90;;;;;;5042387;28;20113;-66
2021/06/17 03:28:14;;;;;;;52.38;35.00;;;17.10;99.90;;;;;;5042816;28;20053;-66
2021/06/17 03:30:46;;;;;;;39.15;27.45;;;17.00;99.90;;;;;;5042607;28;20091;-66
2021/06/17 03:33:13;;;;;;;44.78;32.97;;;17.10;99.90;;;;;;5042721;28;20545;-66
2021/06/17 03:35:40;;;;;;;52.40;34.33;;;17.20;99.90;;;;;;5042781;28;20021;-66
2021/06/17 03:38:08;;;;;;;44.75;30.52;;;17.20;99.90;;;;;;5042449;28;20462;-66
2021/06/17 03:40:34;;;;;;;47.55;33.25;;;17.20;99.90;;;;;;5042568;28;20025;-66
2021/06/17 03:43:01;;;;;;;42.47;31.52;;;17.10;99.90;;;;;;5042556;28;20020;-66
2021/06/17 03:45:29;;;;;;;37.13;25.77;;;17.10;99.90;;;;;;5042427;28;20507;-66
2021/06/17 03:47:55;;;;;;;43.08;30.52;;;17.00;99.90;;;;;;5042872;28;20083;-66
2021/06/17 03:50:24;;;;;;;39.25;28.65;;;17.20;99.90;;;;;;5039559;28;20033;-66
2021/06/17 03:52:52;;;;;;;37.83;27.05;;;17.10;99.90;;;;;;5039269;28;20037;-66
2021/06/17 03:55:19;;;;;;;50.13;30.92;;;17.10;99.90;;;;;;5038871;28;20022;-66
2021/06/17 03:57:50;;;;;;;47.03;30.50;;;17.20;99.90;;;;;;5039389;28;20026;-66
2021/06/17 04:00:17;;;;;;;43.63;28.58;;;17.10;99.90;;;;;;5039155;28;20379;-66
2021/06/17 04:02:44;;;;;;;40.53;29.88;;;17.10;99.90;;;;;;5038942;28;20033;-66
2021/06/17 04:05:13;;;;;;;39.70;25.55;;;17.00;99.90;;;;;;5039009;28;20017;-66
2021/06/17 04:07:42;;;;;;;38.15;25.95;;;17.10;99.90;;;;;;5039197;28;20033;-66
2021/06/17 04:10:10;;;;;;;44.42;27.67;;;17.10;99.90;;;;;;5019125;28;20057;-66
2021/06/17 04:12:38;;;;;;;39.78;27.25;;;17.10;99.90;;;;;;5019213;28;20057;-66
2021/06/17 04:15:06;;;;;;;42.15;26.85;;;17.10;99.90;;;;;;5019062;28;20030;-66
2021/06/17 04:17:41;;;;;;;36.72;25.15;;;17.10;99.90;;;;;;5018979;28;20453;-66
2021/06/17 04:20:11;;;;;;;27.75;22.13;;;17.20;99.90;;;;;;5019363;28;20022;-66
2021/06/17 04:22:41;;;;;;;44.47;26.67;;;17.20;99.90;;;;;;5017631;28;20030;-66
2021/06/17 04:25:09;;;;;;;41.53;27.67;;;17.10;99.90;;;;;;5018877;28;20478;-66
2021/06/17 04:27:35;;;;;;;37.92;25.67;;;17.10;99.90;;;;;;5018638;28;20075;-66
2021/06/17 04:30:03;;;;;;;37.22;23.23;;;17.10;99.90;;;;;;5030160;28;20075;-66
2021/06/17 04:32:29;;;;;;;34.75;23.58;;;17.00;99.90;;;;;;5038650;28;20481;-66
2021/06/17 04:34:56;;;;;;;36.17;21.95;;;17.00;99.90;;;;;;5039129;28;20037;-66
2021/06/17 04:37:25;;;;;;;32.42;21.20;;;16.90;99.90;;;;;;5038238;28;20113;-66
2021/06/17 04:39:55;;;;;;;35.00;20.92;;;16.90;99.90;;;;;;5038225;28;20128;-66
2021/06/17 04:42:22;;;;;;;32.42;22.08;;;16.80;99.90;;;;;;5038379;28;20025;-66
2021/06/17 04:44:48;;;;;;;31.33;19.40;;;16.70;99.90;;;;;;5038560;28;20079;-66
2021/06/17 04:47:15;;;;;;;30.33;18.30;;;16.80;99.90;;;;;;5038263;28;20029;-66
2021/06/17 04:49:42;;;;;;;29.02;17.27;;;16.80;99.90;;;;;;5038227;28;20033;-66
2021/06/17 04:52:32;;;;;;;29.58;20.88;;;16.80;99.90;;;;;;5038159;28;20090;-66
2021/06/17 04:54:58;;;;;;;36.88;20.42;;;16.80;99.90;;;;;;5029597;28;20176;-66
2021/06/17 04:57:24;;;;;;;28.88;19.50;;;16.80;99.90;;;;;;5038314;28;20069;-66
2021/06/17 04:59:50;;;;;;;30.27;19.65;;;16.80;99.90;;;;;;5038051;28;20032;-66
2021/06/17 05:02:16;;;;;;;33.45;20.45;;;16.80;99.90;;;;;;5037808;28;20025;-66
2021/06/17 05:04:42;;;;;;;34.13;21.35;;;16.70;99.90;;;;;;5038113;28;20053;-66
2021/06/17 05:12:27;;;;;;;34.55;19.00;;;16.70;99.90;;;;;;5038132;28;20442;-67
2021/06/17 05:14:53;;;;;;;25.30;16.20;;;16.60;99.90;;;;;;5029684;28;20108;-66
2021/06/17 05:17:19;;;;;;;32.60;19.63;;;16.60;99.90;;;;;;5028052;28;20417;-66
2021/06/17 05:19:44;;;;;;;34.13;19.95;;;16.70;99.90;;;;;;5037627;28;20045;-67
2021/06/17 05:22:12;;;;;;;29.73;18.75;;;16.70;99.90;;;;;;5037090;28;20026;-66
2021/06/17 05:24:38;;;;;;;34.88;20.08;;;16.60;99.90;;;;;;5037353;28;20036;-66
2021/06/17 05:27:06;;;;;;;40.50;21.85;;;16.60;99.90;;;;;;5037292;28;20052;-66
2021/06/17 05:29:32;;;;;;;39.38;21.13;;;16.60;99.90;;;;;;5036799;28;20049;-61
2021/06/17 05:31:58;;;;;;;38.00;21.20;;;16.60;99.90;;;;;;5024333;28;20017;-61
2021/06/17 05:34:23;;;;;;;35.85;19.90;;;16.60;99.90;;;;;;5037231;28;20041;-61
2021/06/17 05:36:49;;;;;;;33.40;20.10;;;16.50;99.90;;;;;;5022005;28;20276;-66
2021/06/17 05:39:15;;;;;;;34.90;20.83;;;16.50;99.90;;;;;;5036421;28;20080;-66
2021/06/17 05:41:41;;;;;;;29.23;18.13;;;16.60;99.90;;;;;;5036386;28;20022;-66
2021/06/17 05:44:07;;;;;;;32.72;18.80;;;16.60;99.90;;;;;;5037313;28;20025;-66
2021/06/17 05:46:37;;;;;;;33.42;18.98;;;16.60;99.90;;;;;;5037145;28;20029;-66
2021/06/17 05:49:03;;;;;;;26.83;17.00;;;16.70;99.90;;;;;;5037206;28;20032;-66
2021/06/17 05:51:28;;;;;;;27.65;16.77;;;16.60;99.90;;;;;;5037382;28;20049;-66
2021/06/17 05:53:54;;;;;;;27.45;16.38;;;16.70;99.90;;;;;;5037351;28;20025;-66
2021/06/17 05:56:20;;;;;;;29.23;17.83;;;16.70;99.90;;;;;;5037087;28;20033;-66
2021/06/17 05:58:47;;;;;;;29.42;16.23;;;16.70;99.90;;;;;;5037226;28;20699;-66
2021/06/17 06:01:13;;;;;;;26.13;16.77;;;16.70;99.90;;;;;;5037072;28;20026;-66
2021/06/17 06:03:39;;;;;;;25.17;16.52;;;16.70;99.90;;;;;;5036927;28;20108;-66
2021/06/17 06:06:06;;;;;;;20.45;14.57;;;16.80;99.90;;;;;;5036882;28;20370;-66
2021/06/17 06:08:32;;;;;;;25.48;16.58;;;16.80;99.90;;;;;;5036899;28;20030;-66
2021/06/17 06:10:58;;;;;;;24.90;15.30;;;16.80;99.90;;;;;;5036964;28;20071;-66
2021/06/17 06:13:23;;;;;;;23.92;15.18;;;16.90;99.90;;;;;;5036192;28;20549;-66
2021/06/17 06:15:49;;;;;;;18.15;13.02;;;17.00;99.90;;;;;;5036827;28;20316;-66
2021/06/17 06:18:16;;;;;;;20.92;13.80;;;17.10;99.90;;;;;;5036996;28;20017;-66
2021/06/17 06:20:44;;;;;;;22.67;14.48;;;17.30;99.90;;;;;;5036739;28;20026;-66
2021/06/17 06:23:11;;;;;;;20.63;13.63;;;17.30;99.90;;;;;;5036811;28;20021;-66
2021/06/17 06:25:38;;;;;;;24.77;14.90;;;17.40;99.90;;;;;;5036472;28;20021;-66
2021/06/17 06:28:04;;;;;;;23.17;14.35;;;17.40;99.90;;;;;;5036433;28;20137;-66
2021/06/17 06:30:31;;;;;;;25.80;13.32;;;17.40;99.90;;;;;;5036171;28;20045;-66
2021/06/17 06:32:57;;;;;;;23.70;13.48;;;17.40;99.90;;;;;;5036531;28;20044;-66
2021/06/17 06:35:25;;;;;;;22.20;15.35;;;17.40;99.90;;;;;;5036820;28;20060;-66
2021/06/17 06:37:51;;;;;;;22.40;13.30;;;17.40;99.90;;;;;;5036447;28;20048;-66
2021/06/17 06:40:20;;;;;;;18.83;13.85;;;17.50;99.90;;;;;;5036236;28;20097;-66
2021/06/17 06:42:46;;;;;;;17.85;12.77;;;17.50;99.90;;;;;;5036307;28;20041;-66
2021/06/17 06:45:12;;;;;;;18.38;12.70;;;17.40;99.90;;;;;;5036543;28;20397;-66
2021/06/17 06:47:38;;;;;;;20.30;14.43;;;17.40;99.90;;;;;;5036362;28;20025;-66
2021/06/17 06:50:05;;;;;;;21.63;14.57;;;17.30;99.90;;;;;;5036578;28;20029;-66
2021/06/17 06:52:31;;;;;;;24.70;14.55;;;17.10;99.90;;;;;;5036364;28;20547;-66
2021/06/17 06:54:58;;;;;;;19.48;12.85;;;17.00;99.90;;;;;;5036361;28;20125;-66
2021/06/17 06:57:25;;;;;;;20.38;12.88;;;17.00;99.90;;;;;;5036078;28;20030;-66
2021/06/17 06:59:51;;;;;;;23.25;13.30;;;17.00;99.90;;;;;;5035125;28;20029;-66
2021/06/17 07:02:17;;;;;;;26.05;13.88;;;16.90;99.90;;;;;;5036255;28;20033;-66
2021/06/17 07:04:43;;;;;;;25.17;13.20;;;17.10;99.90;;;;;;5036412;28;20033;-66
2021/06/17 07:07:09;;;;;;;21.55;13.52;;;17.10;99.90;;;;;;5036325;28;20113;-66
2021/06/17 07:09:35;;;;;;;25.77;14.35;;;17.00;99.90;;;;;;5036259;28;20025;-66
2021/06/17 07:12:02;;;;;;;17.98;12.43;;;17.00;99.90;;;;;;5036086;28;20034;-66
2021/06/17 07:14:29;;;;;;;25.42;13.57;;;17.10;99.90;;;;;;5036462;28;20025;-66
2021/06/17 07:16:55;;;;;;;20.98;13.63;;;17.00;99.90;;;;;;5036354;28;20068;-66
2021/06/17 07:19:21;;;;;;;20.83;13.05;;;17.10;99.90;;;;;;5036240;28;20029;-66
2021/06/17 07:21:47;;;;;;;29.80;14.93;;;16.90;99.90;;;;;;5036081;28;20053;-66
2021/06/17 07:24:13;;;;;;;21.58;13.23;;;17.00;99.90;;;;;;5035825;28;20048;-66
2021/06/17 07:26:39;;;;;;;21.08;13.07;;;17.00;99.90;;;;;;5038970;28;20109;-66
2021/06/17 07:29:05;;;;;;;22.88;12.55;;;17.00;99.90;;;;;;5039405;28;20497;-66
2021/06/17 07:31:32;;;;;;;19.42;12.10;;;16.90;99.90;;;;;;5039548;28;20057;-66
2021/06/17 07:33:57;;;;;;;21.30;12.63;;;17.00;99.90;;;;;;5039767;28;20121;-66
2021/06/17 07:36:23;;;;;;;16.65;11.32;;;16.90;99.90;;;;;;5040005;28;20064;-66
2021/06/17 07:38:49;;;;;;;18.65;9.93;;;17.00;99.90;;;;;;5039300;28;20342;-66
2021/06/17 07:41:15;;;;;;;17.67;10.05;;;16.90;99.90;;;;;;5039314;28;20026;-66
2021/06/17 07:43:41;;;;;;;14.32;10.27;;;17.00;99.90;;;;;;5039521;28;20116;-66
2021/06/17 07:46:07;;;;;;;15.73;9.82;;;17.10;99.90;;;;;;5039331;28;20029;-66
2021/06/17 07:48:35;;;;;;;14.32;9.18;;;17.10;99.90;;;;;;5039540;28;20033;-66
2021/06/17 07:51:01;;;;;;;13.00;9.93;;;17.10;99.90;;;;;;5039278;28;20497;-66
2021/06/17 07:53:27;;;;;;;16.92;10.70;;;17.10;99.90;;;;;;5039176;28;20401;-66
2021/06/17 07:55:52;;;;;;;16.60;9.68;;;17.10;99.90;;;;;;5039364;28;20501;-66
2021/06/17 07:58:18;;;;;;;10.25;7.78;;;17.10;99.90;;;;;;5039268;28;20033;-66
2021/06/17 08:00:44;;;;;;;13.25;9.15;;;17.20;99.90;;;;;;5039160;28;20025;-66
2021/06/17 08:03:10;;;;;;;15.43;9.35;;;17.20;99.90;;;;;;5039254;28;20029;-66
2021/06/17 08:05:36;;;;;;;15.63;9.10;;;17.30;99.90;;;;;;5039026;28;20017;-66
2021/06/17 08:08:02;;;;;;;13.18;9.63;;;17.40;99.90;;;;;;5039074;28;20060;-66
2021/06/17 08:10:29;;;;;;;17.13;9.52;;;17.40;99.90;;;;;;5039352;28;20034;-66
2021/06/17 08:12:54;;;;;;;12.88;7.68;;;17.50;99.90;;;;;;5039618;28;20037;-66
2021/06/17 08:15:22;;;;;;;14.30;7.50;;;17.60;99.90;;;;;;5038703;28;20105;-66
2021/06/17 08:17:48;;;;;;;14.57;8.02;;;17.60;99.90;;;;;;5039080;28;20018;-66
2021/06/17 08:20:14;;;;;;;11.98;8.00;;;17.60;99.90;;;;;;5038954;28;20033;-66
2021/06/17 08:22:42;;;;;;;9.60;6.93;;;17.50;99.90;;;;;;5039011;28;20485;-66
2021/06/17 08:25:10;;;;;;;13.25;7.38;;;17.50;99.90;;;;;;5038469;28;20436;-66
2021/06/17 08:27:36;;;;;;;11.50;6.18;;;17.40;99.90;;;;;;5038748;28;20456;-66
2021/06/17 08:30:07;;;;;;;12.25;6.40;;;17.40;99.90;;;;;;5038328;28;20088;-66
2021/06/17 08:32:33;;;;;;;7.60;5.88;;;17.40;99.90;;;;;;5038639;28;20061;-66
2021/06/17 08:34:59;;;;;;;10.57;6.97;;;17.40;99.90;;;;;;5038770;28;20033;-66
2021/06/17 08:37:25;;;;;;;10.27;6.63;;;17.40;99.90;;;;;;5038124;28;20385;-66
2021/06/17 08:39:54;;;;;;;10.32;5.95;;;17.40;99.90;;;;;;5038130;28;20026;-66
2021/06/17 08:42:30;;;;;;;8.15;5.82;;;17.40;99.90;;;;;;5038342;28;20367;-66
2021/06/17 08:44:57;;;;;;;10.40;5.78;;;17.60;99.90;;;;;;5038737;28;20033;-66
2021/06/17 08:47:24;;;;;;;11.35;5.57;;;17.60;99.90;;;;;;5038231;28;20436;-66
2021/06/17 08:49:52;;;;;;;8.75;5.00;;;17.60;99.90;;;;;;5038566;28;20029;-66
2021/06/17 08:52:19;;;;;;;8.60;5.13;;;17.60;99.90;;;;;;5038338;28;20068;-66
2021/06/17 08:54:46;;;;;;;7.60;5.00;;;17.50;99.90;;;;;;5037951;28;20080;-66
2021/06/17 08:57:13;;;;;;;7.68;6.00;;;17.50;99.90;;;;;;5037934;28;20108;-66
2021/06/17 08:59:41;;;;;;;7.97;5.00;;;17.50;99.90;;;;;;5038346;28;20116;-66
2021/06/17 09:02:08;;;;;;;5.88;4.50;;;17.40;99.90;;;;;;5037993;28;20053;-66
2021/06/17 09:04:34;;;;;;;6.50;5.20;;;17.40;99.90;;;;;;5038096;28;20094;-66
2021/06/17 09:07:13;;;;;;;6.75;5.30;;;17.40;99.90;;;;;;5037951;28;20037;-66
2021/06/17 09:09:45;;;;;;;6.25;4.57;;;17.40;99.90;;;;;;5037708;28;20504;-66
2021/06/17 09:12:19;;;;;;;7.25;4.45;;;17.60;99.90;;;;;;5037781;28;20017;-66
2021/06/17 09:14:53;;;;;;;5.43;4.28;;;17.60;99.90;;;;;;5037640;28;20493;-66
2021/06/17 09:17:19;;;;;;;6.55;4.22;;;17.70;99.90;;;;;;5038033;28;20034;-66
2021/06/17 09:19:49;;;;;;;4.20;3.63;;;17.80;99.90;;;;;;5036416;28;20017;-66
2021/06/17 09:22:23;;;;;;;9.30;4.00;;;17.80;99.90;;;;;;5037845;28;20036;-66
2021/06/17 09:24:51;;;;;;;5.05;3.63;;;17.80;99.90;;;;;;5037221;28;20040;-66
2021/06/17 09:27:25;;;;;;;6.53;3.08;;;17.80;99.90;;;;;;5037491;28;20030;-66
2021/06/17 09:30:14;;;;;;;4.53;3.42;;;17.90;99.90;;;;;;5037302;28;20061;-66
2021/06/17 09:32:50;;;;;;;6.35;3.88;;;18.00;99.90;;;;;;5037516;28;20030;-66
2021/06/17 09:35:25;;;;;;;5.43;3.33;;;18.20;99.90;;;;;;5025170;28;20033;-66
2021/06/17 09:38:03;;;;;;;5.15;3.75;;;18.40;99.90;;;;;;5037101;28;20021;-66
2021/06/17 09:40:33;;;;;;;3.42;2.85;;;18.40;99.90;;;;;;5037744;28;20034;-66
2021/06/17 09:43:16;;;;;;;4.00;3.28;;;18.50;99.90;;;;;;5037627;28;20075;-66
2021/06/17 09:46:06;;;;;;;5.13;3.03;;;18.50;99.90;;;;;;5037403;28;20029;-66
2021/06/17 09:48:49;;;;;;;6.90;2.55;;;18.60;99.90;;;;;;5028986;28;20064;-66
2021/06/17 09:51:27;;;;;;;3.90;3.35;;;18.60;99.90;;;;;;5036999;28;20087;-66
2021/06/17 09:54:06;;;;;;;3.33;2.85;;;18.60;99.90;;;;;;5036883;28;20188;-66
2021/06/17 09:56:34;;;;;;;3.72;2.28;;;18.60;99.90;;;;;;5037297;28;20128;-66
2021/06/17 09:59:01;;;;;;;2.38;2.17;;;18.60;99.90;;;;;;5037095;28;20026;-66
2021/06/17 10:01:35;;;;;;;2.30;2.10;;;18.60;99.90;;;;;;5037145;28;20033;-66
2021/06/17 10:04:11;;;;;;;1.80;1.70;;;18.70;99.90;;;;;;5037030;28;20040;-66
2021/06/17 10:06:41;;;;;;;2.28;1.90;;;18.60;99.90;;;;;;5036984;28;20075;-66
2021/06/17 10:09:09;;;;;;;2.22;2.05;;;18.50;99.90;;;;;;5036813;28;20025;-66
2021/06/17 10:11:36;;;;;;;3.75;1.67;;;18.50;99.90;;;;;;5037018;28;20025;-66
2021/06/17 10:14:03;;;;;;;1.42;1.33;;;18.60;99.90;;;;;;5036569;28;20695;-66
2021/06/17 10:16:29;;;;;;;2.17;1.23;;;18.80;99.90;;;;;;5036997;28;20037;-66
2021/06/17 10:18:56;;;;;;;1.58;1.48;;;19.00;99.90;;;;;;5036869;28;20022;-66
2021/06/17 10:21:22;;;;;;;2.17;1.40;;;19.20;99.90;;;;;;5036862;28;20017;-66
2021/06/17 10:23:51;;;;;;;1.58;1.30;;;19.40;99.90;;;;;;5036388;28;20443;-66
2021/06/17 10:26:22;;;;;;;1.10;1.00;;;19.50;99.90;;;;;;5036756;28;20107;-66
2021/06/17 10:28:51;;;;;;;1.42;1.33;;;19.60;99.90;;;;;;5036151;28;20044;-66
2021/06/17 10:31:35;;;;;;;2.70;1.30;;;19.70;99.90;;;;;;5036775;28;20486;-66
2021/06/17 10:34:23;;;;;;;1.40;1.30;;;19.60;99.90;;;;;;5027718;28;20378;-66
2021/06/17 10:37:18;;;;;;;1.40;1.30;;;19.50;99.90;;;;;;5035537;28;20037;-66
2021/06/17 10:40:04;;;;;;;1.90;1.50;;;19.50;99.90;;;;;;5036110;28;20022;-66
2021/06/17 10:42:37;;;;;;;2.78;1.10;;;19.50;99.90;;;;;;5036231;28;20367;-66
2021/06/17 10:45:43;;;;;;;1.20;1.10;;;19.50;99.90;;;;;;5036631;28;20102;-66
2021/06/17 10:48:14;;;;;;;1.35;1.10;;;19.40;99.90;;;;;;5016657;28;20034;-66
2021/06/17 10:50:48;;;;;;;1.00;0.98;;;19.60;99.90;;;;;;5016828;28;20030;-66
2021/06/17 10:53:23;;;;;;;4.05;1.05;;;19.70;99.90;;;;;;5016463;28;20102;-66
2021/06/17 10:56:08;;;;;;;1.08;0.98;;;19.90;99.90;;;;;;5016457;28;20033;-67
2021/06/17 10:58:43;;;;;;;1.90;0.90;;;20.10;99.90;;;;;;5016483;28;20089;-66
2021/06/17 11:01:38;;;;;;;1.00;1.00;;;20.40;99.90;;;;;;5020730;28;20018;-66
2021/06/17 11:04:15;;;;;;;1.25;1.15;;;20.50;99.90;;;;;;5020371;28;20405;-66
2021/06/17 11:06:55;;;;;;;3.35;1.13;;;20.80;99.90;;;;;;5020458;28;20052;-67
2021/06/17 11:09:42;;;;;;;0.70;0.70;;;20.90;99.90;;;;;;5020094;28;20045;-67
2021/06/17 11:12:17;;;;;;;1.38;1.10;;;20.90;99.90;;;;;;5020422;28;20022;-66
2021/06/17 11:14:47;;;;;;;1.02;0.80;;;20.90;99.90;;;;;;5020235;28;20034;-66
2021/06/17 11:17:34;;;;;;;1.35;0.90;;;20.80;99.90;;;;;;5020417;28;20026;-66
2021/06/17 11:20:21;;;;;;;1.10;1.10;;;20.70;99.90;;;;;;5020104;28;20436;-67
2021/06/17 11:22:50;;;;;;;1.10;1.00;;;20.40;99.90;;;;;;5019946;28;20026;-66
2021/06/17 11:25:16;;;;;;;1.33;0.90;;;20.40;99.90;;;;;;5020171;28;20034;-66
2021/06/17 11:28:15;;;;;;;3.42;1.17;;;20.50;99.90;;;;;;5020118;28;20026;-66
2021/06/17 11:30:55;;;;;;;0.90;0.90;;;20.60;99.90;;;;;;5013559;28;20095;-66
2021/06/17 11:33:24;;;;;;;1.67;1.30;;;20.70;99.90;;;;;;5039490;28;20039;-66
2021/06/17 11:35:58;;;;;;;1.42;1.15;;;20.60;99.90;;;;;;5040059;28;20014;-67
2021/06/17 11:38:33;;;;;;;1.83;1.08;;;20.50;99.90;;;;;;5039455;28;20026;-66
2021/06/17 11:41:10;;;;;;;4.90;3.10;;;20.40;99.90;;;;;;5039826;28;20010;-66
2021/06/17 11:43:36;;;;;;;1.52;1.35;;;20.40;99.90;;;;;;5039424;28;20397;-66
2021/06/17 11:46:02;;;;;;;1.77;1.25;;;20.30;99.90;;;;;;5039535;28;20025;-66
2021/06/17 11:48:29;;;;;;;1.88;1.10;;;20.20;99.90;;;;;;5039733;28;20025;-66
2021/06/17 11:50:55;;;;;;;3.45;1.13;;;20.30;99.90;;;;;;5039627;28;20454;-66
2021/06/17 11:53:24;;;;;;;1.55;1.45;;;20.40;99.90;;;;;;5039349;28;20075;-66
2021/06/17 11:55:57;;;;;;;1.25;0.85;;;20.40;99.90;;;;;;5039255;28;20347;-66
2021/06/17 11:58:27;;;;;;;2.28;1.35;;;20.60;99.90;;;;;;5039433;28;20325;-66
2021/06/17 12:00:53;;;;;;;3.67;1.30;;;20.80;99.90;;;;;;5039435;28;20037;-66
2021/06/17 12:03:23;;;;;;;1.63;1.38;;;21.00;99.90;;;;;;5039461;28;20030;-67
2021/06/17 12:05:50;;;;;;;2.05;1.73;;;21.10;99.90;;;;;;5039210;28;20056;-67
2021/06/17 12:08:16;;;;;;;1.35;1.25;;;21.30;99.90;;;;;;5038946;28;20017;-67
2021/06/17 12:10:45;;;;;;;2.22;1.40;;;21.20;99.90;;;;;;5038273;28;20041;-66
2021/06/17 12:13:13;;;;;;;3.30;1.75;;;21.10;99.90;;;;;;5039160;28;20029;-67
2021/06/17 12:15:42;;;;;;;2.35;1.55;;;21.10;99.90;;;;;;5038849;28;20101;-66
2021/06/17 12:18:13;;;;;;;5.13;1.40;;;20.90;99.90;;;;;;5039221;28;20056;-66
2021/06/17 12:20:40;;;;;;;2.90;1.45;;;20.70;99.90;;;;;;5038884;28;20029;-66
2021/06/17 12:23:17;;;;;;;2.40;1.35;;;20.40;99.90;;;;;;5038706;28;20040;-66
2021/06/17 12:25:46;;;;;;;1.65;1.50;;;20.20;99.90;;;;;;5038690;28;20053;-66
2021/06/17 12:28:14;;;;;;;2.42;1.42;;;20.00;99.90;;;;;;5038763;28;20022;-66
2021/06/17 12:30:45;;;;;;;2.67;1.25;;;20.00;99.90;;;;;;5038536;28;20100;-66
2021/06/17 12:33:26;;;;;;;1.65;1.00;;;20.00;99.90;;;;;;5038559;28;20029;-67
2021/06/17 12:36:12;;;;;;;1.40;1.30;;;20.00;99.90;;;;;;5039007;28;20032;-67
2021/06/17 12:38:39;;;;;;;;;;;20.00;99.90;;;;;;5027768;28;20029;-66
2021/06/17 12:41:11;;;;;;;1.13;0.90;;;20.10;99.90;;;;;;5038403;28;19905;-66
2021/06/17 12:43:56;;;;;;;11.93;2.10;;;20.10;99.90;;;;;;5038344;28;20025;-66
2021/06/17 12:46:32;;;;;;;1.38;1.10;;;19.90;99.90;;;;;;5038529;28;20060;-66
2021/06/17 12:54:39;;;;;;;2.08;0.93;;;19.80;99.90;;;;;;5038342;28;20075;-66
2021/06/17 12:57:13;;;;;;;3.33;1.45;;;19.80;99.90;;;;;;5038172;28;20056;-66